Terminal Aerodrome Forecast
Issued by NWS Jackson, KY

Home | Current Version | Previous Version | Text Only | Print | Product List | Glossary On
Versions: 1 2 3 4 5 6 7 8 9 10 11 12 13 14 15 16 17 18 19 20 21
000
FTUS43 KJKL 161123
TAFJKL
TAF
KJKL 161123Z 1612/1712 27005KT P6SM SCT015
     FM161400 27006KT P6SM SCT200
     FM161600 28007KT P6SM BKN025
     FM161800 32002KT P6SM SCT200=

USA.gov is the U.S. government's official web portal to all federal, state and local government web resources and services.